createdAt,value
2023-09-02T00:02:19.028Z,11.33
2023-09-02T00:04:47.427Z,11.80
2023-09-02T00:07:15.984Z,10.70
2023-09-02T00:09:44.531Z,10.50
2023-09-02T00:12:14.473Z,12.30
2023-09-02T00:14:42.897Z,10.83
2023-09-02T00:17:11.792Z,10.10
2023-09-02T00:19:41.452Z,10.83
2023-09-02T00:22:09.875Z,10.90
2023-09-02T00:24:39.895Z,10.00
2023-09-02T00:27:08.247Z,10.07
2023-09-02T00:29:38.051Z,9.60
2023-09-02T00:32:07.418Z,9.97
2023-09-02T00:34:36.325Z,9.47
2023-09-02T00:37:05.376Z,9.43
2023-09-02T00:39:34.086Z,10.40
2023-09-02T00:42:02.552Z,10.17
2023-09-02T00:44:31.408Z,12.10
2023-09-02T00:47:01.262Z,11.07
2023-09-02T00:49:29.732Z,13.07
2023-09-02T00:51:58.144Z,12.70
2023-09-02T00:54:26.522Z,13.07
2023-09-02T00:56:55.009Z,12.03
2023-09-02T00:59:23.847Z,14.20
2023-09-02T01:01:52.254Z,12.83
2023-09-02T01:04:22.715Z,12.73
2023-09-02T01:06:51.200Z,11.23
2023-09-02T01:09:19.579Z,14.40
2023-09-02T01:11:48.015Z,13.77
2023-09-02T01:14:16.626Z,12.33
2023-09-02T01:16:45.096Z,13.47
2023-09-02T01:19:16.961Z,14.57
2023-09-02T01:22:13.189Z,11.40
2023-09-02T01:25:07.425Z,11.17
2023-09-02T01:27:39.420Z,12.87
2023-09-02T01:30:10.660Z,11.13
2023-09-02T01:32:43.471Z,12.20
2023-09-02T01:35:15.207Z,12.63
2023-09-02T01:37:44.384Z,12.20
2023-09-02T01:40:23.008Z,12.50
2023-09-02T01:42:53.335Z,11.07
2023-09-02T01:45:23.811Z,11.43
2023-09-02T01:47:52.618Z,10.53
2023-09-02T01:50:23.766Z,10.83
2023-09-02T01:52:52.629Z,10.50
2023-09-02T01:55:21.052Z,11.40
2023-09-02T01:57:49.419Z,11.60
2023-09-02T02:00:20.111Z,11.10
2023-09-02T02:02:50.350Z,11.90
2023-09-02T02:05:19.842Z,12.30
2023-09-02T02:07:55.647Z,12.63
2023-09-02T02:10:25.703Z,11.93
2023-09-02T02:12:54.178Z,12.47
2023-09-02T02:15:24.225Z,12.43
2023-09-02T02:17:52.680Z,15.13
2023-09-02T02:20:22.435Z,13.60
2023-09-02T02:22:50.827Z,13.37
2023-09-02T02:25:19.682Z,13.67
2023-09-02T02:27:48.070Z,13.77
2023-09-02T02:30:16.528Z,11.90
2023-09-02T02:32:46.268Z,11.13
2023-09-02T02:35:15.244Z,12.03
2023-09-02T02:37:44.415Z,11.63
2023-09-02T02:40:18.710Z,11.33
2023-09-02T02:42:47.300Z,12.43
2023-09-02T02:45:16.066Z,11.40
2023-09-02T02:47:45.870Z,13.03
2023-09-02T02:50:14.551Z,11.83
2023-09-02T02:52:42.982Z,12.10
2023-09-02T02:55:11.447Z,12.37
2023-09-02T02:57:39.860Z,12.30
2023-09-02T03:00:10.371Z,12.80
2023-09-02T03:02:38.892Z,12.10
2023-09-02T03:05:09.787Z,12.40
2023-09-02T03:07:40.511Z,12.87
2023-09-02T03:10:09.684Z,11.83
2023-09-02T03:12:38.482Z,12.80
2023-09-02T03:15:08.343Z,11.07
2023-09-02T03:17:36.788Z,12.17
2023-09-02T03:20:06.250Z,12.37
2023-09-02T03:22:36.103Z,13.23
2023-09-02T03:25:04.711Z,12.10
2023-09-02T03:27:33.094Z,12.20
2023-09-02T03:30:00.518Z,13.53
2023-09-02T03:32:28.856Z,11.83
2023-09-02T03:34:57.803Z,11.73
2023-09-02T03:37:26.338Z,11.53
2023-09-02T03:39:56.142Z,11.17
2023-09-02T03:42:24.632Z,11.50
2023-09-02T03:44:53.629Z,11.93
2023-09-02T03:47:22.035Z,12.73
2023-09-02T03:49:52.467Z,11.70
2023-09-02T03:52:20.895Z,10.43
2023-09-02T03:54:49.329Z,10.87
2023-09-02T03:57:19.164Z,11.60
2023-09-02T03:59:47.547Z,11.20
2023-09-02T04:02:16.601Z,12.60
2023-09-02T04:04:45.043Z,11.23
2023-09-02T04:07:13.460Z,11.70
2023-09-02T04:09:41.795Z,12.60
2023-09-02T04:12:10.470Z,11.10
2023-09-02T04:14:40.272Z,11.57
2023-09-02T04:17:08.734Z,11.97
2023-09-02T04:19:37.607Z,12.90
2023-09-02T04:22:06.249Z,13.23
2023-09-02T04:24:34.661Z,14.73
2023-09-02T04:27:03.071Z,15.03
2023-09-02T04:29:31.499Z,17.53
2023-09-02T04:32:01.474Z,16.53
2023-09-02T04:34:29.959Z,17.33
2023-09-02T04:36:58.370Z,16.90
2023-09-02T04:39:26.777Z,16.10
2023-09-02T04:41:55.231Z,14.80
2023-09-02T04:44:23.634Z,15.83
2023-09-02T04:46:52.004Z,14.77
2023-09-02T04:49:22.066Z,14.37
2023-09-02T04:51:50.893Z,13.83
2023-09-02T04:54:19.299Z,13.90
2023-09-02T04:56:47.777Z,14.67
2023-09-02T04:59:16.202Z,15.23
2023-09-02T05:01:44.780Z,15.43
2023-09-02T05:04:13.219Z,13.43
2023-09-02T05:06:43.279Z,13.50
2023-09-02T05:09:11.640Z,13.30
2023-09-02T05:11:40.047Z,13.90
2023-09-02T05:14:08.453Z,16.23
2023-09-02T05:16:36.953Z,15.67
2023-09-02T05:19:05.536Z,14.50
2023-09-02T05:21:33.934Z,14.83
2023-09-02T05:24:03.906Z,14.23
2023-09-02T05:26:32.340Z,13.73
2023-09-02T05:29:00.780Z,13.97
2023-09-02T05:31:29.263Z,13.40
2023-09-02T05:33:57.646Z,14.63
2023-09-02T05:36:26.060Z,15.47
2023-09-02T05:38:55.558Z,15.10
2023-09-02T05:41:26.253Z,16.50
2023-09-02T05:43:55.971Z,16.67
2023-09-02T05:46:24.529Z,15.40
2023-09-02T05:48:53.255Z,15.47
2023-09-02T05:51:21.584Z,16.60
2023-09-02T05:53:50.051Z,14.20
2023-09-02T05:56:18.447Z,14.40
2023-09-02T05:58:48.291Z,12.47
2023-09-02T06:01:16.695Z,14.40
2023-09-02T06:03:45.106Z,13.67
2023-09-02T06:06:13.761Z,15.47
2023-09-02T06:08:42.202Z,14.53
2023-09-02T06:11:10.605Z,13.23
2023-09-02T06:13:39.117Z,14.87
2023-09-02T06:16:09.363Z,13.23
2023-09-02T06:18:38.115Z,15.97
2023-09-02T06:21:13.220Z,16.73
2023-09-02T06:23:43.783Z,16.90
2023-09-02T06:26:12.901Z,19.20
2023-09-02T06:28:41.585Z,20.80
2023-09-02T06:31:11.626Z,22.73
2023-09-02T06:33:40.413Z,19.67
2023-09-02T06:36:12.517Z,21.47
2023-09-02T06:38:41.033Z,17.83
2023-09-02T06:41:13.131Z,17.77
2023-09-02T06:43:41.670Z,18.07
2023-09-02T06:46:13.285Z,16.33
2023-09-02T06:48:41.733Z,18.73
2023-09-02T06:51:10.175Z,18.60
2023-09-02T06:53:38.618Z,15.33
2023-09-02T06:56:09.512Z,16.47
2023-09-02T06:58:40.238Z,14.77
2023-09-02T07:01:08.721Z,13.13
2023-09-02T07:03:38.684Z,14.43
2023-09-02T07:06:07.869Z,13.70
2023-09-02T07:08:36.530Z,13.90
2023-09-02T07:11:06.733Z,11.90
2023-09-02T07:13:35.233Z,12.57
2023-09-02T07:16:03.958Z,13.13
2023-09-02T07:18:32.680Z,12.13
2023-09-02T07:21:02.874Z,10.10
2023-09-02T07:23:33.646Z,9.20
2023-09-02T07:26:05.530Z,8.53
2023-09-02T07:28:34.883Z,7.67
2023-09-02T07:31:03.655Z,6.93
2023-09-02T07:33:32.193Z,8.00
2023-09-02T07:36:08.455Z,7.30
2023-09-02T07:38:39.415Z,7.33
2023-09-02T07:41:10.007Z,7.13
2023-09-02T07:43:38.555Z,6.60
2023-09-02T07:46:07.186Z,5.30
2023-09-02T07:48:35.770Z,6.70
2023-09-02T07:51:05.676Z,5.80
2023-09-02T07:53:34.109Z,5.97
2023-09-02T07:56:02.696Z,4.70
2023-09-02T07:58:30.030Z,5.27
2023-09-02T08:00:58.742Z,5.63
2023-09-02T08:03:27.312Z,5.20
2023-09-02T08:05:55.812Z,3.60
2023-09-02T08:08:25.694Z,5.27
2023-09-02T08:11:04.136Z,4.93
2023-09-02T08:13:32.691Z,4.40
2023-09-02T08:16:01.319Z,4.70
2023-09-02T08:18:29.770Z,4.97
2023-09-02T08:20:58.211Z,4.40
2023-09-02T08:23:27.968Z,4.40
2023-09-02T08:25:56.424Z,4.73
2023-09-02T08:28:25.977Z,3.60
2023-09-02T08:30:54.419Z,4.00
2023-09-02T08:33:22.814Z,4.10
2023-09-02T08:35:51.285Z,3.43
2023-09-02T08:38:19.738Z,2.80
2023-09-02T08:40:49.551Z,3.17
2023-09-02T08:43:18.091Z,2.83
2023-09-02T08:45:46.722Z,3.70
2023-09-02T08:48:25.061Z,3.40
2023-09-02T08:50:55.145Z,2.73
2023-09-02T08:53:23.576Z,3.33
2023-09-02T08:55:53.529Z,3.37
2023-09-02T08:58:22.037Z,3.43
2023-09-02T09:00:50.521Z,3.80
2023-09-02T09:03:19.192Z,3.30
2023-09-02T09:05:47.812Z,2.90
2023-09-02T09:08:16.230Z,2.63
2023-09-02T09:10:44.643Z,3.10
2023-09-02T09:13:15.326Z,3.37
2023-09-02T09:15:43.877Z,2.63
2023-09-02T09:18:13.475Z,3.63
2023-09-02T09:20:41.918Z,3.27
2023-09-02T09:23:10.381Z,3.00
2023-09-02T09:25:38.808Z,2.90
2023-09-02T09:28:11.106Z,3.10
2023-09-02T09:30:40.955Z,2.47
2023-09-02T09:33:09.939Z,2.97
2023-09-02T09:35:38.367Z,3.33
2023-09-02T09:38:07.753Z,3.07
2023-09-02T09:40:37.073Z,2.80
2023-09-02T09:43:16.771Z,2.70
2023-09-02T09:45:53.001Z,3.37
2023-09-02T09:48:21.445Z,3.10
2023-09-02T09:50:49.792Z,3.10
2023-09-02T09:53:18.397Z,2.87
2023-09-02T09:55:47.026Z,3.50
2023-09-02T09:58:15.442Z,3.07
2023-09-02T10:00:44.041Z,2.80
2023-09-02T10:03:13.864Z,2.43
2023-09-02T10:05:42.394Z,2.43
2023-09-02T10:08:11.216Z,2.67
2023-09-02T10:10:41.372Z,2.77
2023-09-02T10:13:09.826Z,2.73
2023-09-02T10:15:38.791Z,3.20
2023-09-02T10:18:07.501Z,2.87
2023-09-02T10:20:39.622Z,2.70
2023-09-02T10:23:09.117Z,3.50
2023-09-02T10:25:46.453Z,3.80
2023-09-02T10:28:18.175Z,3.03
2023-09-02T10:30:49.748Z,3.07
2023-09-02T10:33:23.178Z,3.20
2023-09-02T10:36:00.741Z,2.63
2023-09-02T10:38:31.486Z,3.30
2023-09-02T10:41:09.165Z,3.20
2023-09-02T10:43:37.918Z,2.90
2023-09-02T10:46:06.379Z,3.60
2023-09-02T10:48:35.115Z,2.43
2023-09-02T10:51:05.134Z,2.90
2023-09-02T10:53:59.529Z,3.20
2023-09-02T10:56:28.232Z,2.60
2023-09-02T10:58:56.733Z,2.83
2023-09-02T11:01:26.120Z,3.37
2023-09-02T11:03:55.991Z,2.50
2023-09-02T11:06:25.839Z,2.90
2023-09-02T11:08:54.952Z,2.60
2023-09-02T11:11:23.444Z,2.30
2023-09-02T11:14:20.281Z,2.60
2023-09-02T11:17:12.262Z,3.17
2023-09-02T11:20:00.187Z,3.10
2023-09-02T11:22:53.356Z,2.47
2023-09-02T11:25:35.850Z,3.00
2023-09-02T11:28:05.493Z,2.63
2023-09-02T11:30:36.873Z,2.70
2023-09-02T11:33:06.135Z,2.67
2023-09-02T11:35:35.787Z,2.50
2023-09-02T11:38:18.512Z,2.30
2023-09-02T11:40:48.083Z,2.20
2023-09-02T11:43:21.327Z,2.60
2023-09-02T11:45:50.274Z,2.10
2023-09-02T11:48:18.752Z,2.37
2023-09-02T11:50:47.193Z,2.40
2023-09-02T11:53:17.292Z,2.40
2023-09-02T11:55:46.228Z,2.30
2023-09-02T11:58:18.845Z,2.17
2023-09-02T12:00:47.365Z,2.70
2023-09-02T12:03:24.734Z,2.20
2023-09-02T12:05:54.696Z,2.03
2023-09-02T12:08:24.773Z,2.03
2023-09-02T12:10:54.802Z,2.23
2023-09-02T12:13:23.457Z,1.67
2023-09-02T12:15:52.982Z,1.80
2023-09-02T12:18:21.743Z,2.13
2023-09-02T12:20:50.301Z,2.23
2023-09-02T12:23:19.218Z,2.63
2023-09-02T12:26:05.628Z,2.40
2023-09-02T12:28:34.118Z,2.00
2023-09-02T12:31:08.558Z,2.33
2023-09-02T12:33:39.386Z,2.10
2023-09-02T12:36:08.161Z,2.13
2023-09-02T12:38:51.062Z,2.20
2023-09-02T12:41:20.862Z,2.40
2023-09-02T12:43:49.384Z,2.37
2023-09-02T12:46:22.716Z,2.20
2023-09-02T12:48:52.029Z,3.10
2023-09-02T12:51:29.734Z,2.60
2023-09-02T12:54:00.142Z,1.93
2023-09-02T12:56:31.052Z,2.57
2023-09-02T12:58:59.473Z,2.60
2023-09-02T13:01:27.910Z,3.07
2023-09-02T13:03:57.173Z,2.57
2023-09-02T13:06:28.140Z,2.60
2023-09-02T13:08:56.790Z,2.70
2023-09-02T13:11:26.749Z,2.30
2023-09-02T13:13:56.752Z,2.30
2023-09-02T13:16:26.128Z,2.50
2023-09-02T13:18:54.598Z,2.80
2023-09-02T13:21:23.556Z,2.50
2023-09-02T13:23:53.723Z,2.53
2023-09-02T13:26:22.302Z,3.00
2023-09-02T13:28:50.817Z,2.40
2023-09-02T13:31:23.501Z,2.30
2023-09-02T13:33:51.897Z,2.37
2023-09-02T13:36:20.314Z,2.30
2023-09-02T13:38:48.666Z,2.70
2023-09-02T13:41:17.119Z,2.77
2023-09-02T13:43:44.667Z,2.97
2023-09-02T13:46:13.057Z,2.50
2023-09-02T13:48:42.888Z,2.50
2023-09-02T13:51:14.793Z,2.80
2023-09-02T13:53:43.151Z,2.50
2023-09-02T13:56:13.639Z,2.80
2023-09-02T13:58:42.395Z,2.60
2023-09-02T14:01:10.773Z,2.90
2023-09-02T14:03:39.217Z,2.90
2023-09-02T14:06:09.099Z,2.60
2023-09-02T14:08:38.241Z,2.80
2023-09-02T14:11:06.923Z,3.53
2023-09-02T14:13:38.770Z,3.30
2023-09-02T14:16:07.563Z,2.83
2023-09-02T14:18:36.173Z,2.60
2023-09-02T14:21:04.757Z,2.97
2023-09-02T14:23:34.825Z,2.60
2023-09-02T14:26:03.351Z,2.70
2023-09-02T14:28:32.416Z,2.60
2023-09-02T14:31:01.093Z,2.53
2023-09-02T14:33:29.567Z,3.20
2023-09-02T14:35:58.596Z,2.60
2023-09-02T14:38:27.089Z,2.87
2023-09-02T14:40:56.890Z,3.00
2023-09-02T14:43:25.387Z,2.70
2023-09-02T14:45:53.825Z,2.67
2023-09-02T14:48:23.607Z,3.43
2023-09-02T14:50:52.035Z,3.87
2023-09-02T14:53:20.833Z,3.33
2023-09-02T14:55:51.073Z,3.40
2023-09-02T14:58:20.852Z,4.20
2023-09-02T15:00:49.566Z,3.87
2023-09-02T15:03:26.192Z,3.23
2023-09-02T15:05:57.720Z,3.60
2023-09-02T15:08:26.346Z,4.13
2023-09-02T15:10:54.888Z,3.00
2023-09-02T15:13:24.817Z,3.83
2023-09-02T15:15:53.552Z,4.10
2023-09-02T15:18:24.991Z,3.60
2023-09-02T15:20:53.543Z,3.30
2023-09-02T15:23:22.230Z,3.50
2023-09-02T15:25:51.548Z,3.00
2023-09-02T15:28:20.005Z,3.13
2023-09-02T15:30:49.812Z,3.23
2023-09-02T15:33:18.447Z,2.87
2023-09-02T15:35:47.173Z,3.90
2023-09-02T15:38:17.363Z,3.53
2023-09-02T15:40:45.802Z,3.50
2023-09-02T15:43:14.358Z,3.20
2023-09-02T15:45:42.940Z,3.20
2023-09-02T15:48:12.876Z,3.23
2023-09-02T15:50:41.312Z,3.00
2023-09-02T15:53:09.726Z,3.80
2023-09-02T15:55:38.178Z,3.30
2023-09-02T15:58:06.995Z,4.30
2023-09-02T16:00:35.503Z,3.77
2023-09-02T16:03:04.587Z,3.53
2023-09-02T16:05:34.807Z,2.80
2023-09-02T16:08:04.774Z,3.30
2023-09-02T16:10:34.010Z,3.83
2023-09-02T16:13:02.413Z,3.57
2023-09-02T16:15:30.965Z,3.07
2023-09-02T16:17:59.458Z,3.57
2023-09-02T16:20:28.069Z,3.43
2023-09-02T16:22:57.909Z,3.20
2023-09-02T16:25:26.337Z,3.20
2023-09-02T16:27:54.778Z,3.33
2023-09-02T16:30:23.188Z,2.77
2023-09-02T16:32:51.632Z,2.97
2023-09-02T16:35:22.845Z,3.17
2023-09-02T16:37:51.308Z,2.80
2023-09-02T16:40:22.488Z,2.80
2023-09-02T16:42:51.197Z,3.37
2023-09-02T16:45:19.622Z,2.70
2023-09-02T16:47:49.220Z,3.53
2023-09-02T16:50:19.296Z,3.20
2023-09-02T16:52:48.819Z,3.23
2023-09-02T16:55:18.215Z,3.20
2023-09-02T16:57:49.192Z,4.17
2023-09-02T17:00:19.115Z,2.90
2023-09-02T17:02:48.389Z,6.83
2023-09-02T17:05:18.292Z,5.77
2023-09-02T17:07:47.052Z,6.23
2023-09-02T17:10:19.006Z,10.03
2023-09-02T17:12:49.393Z,13.13
2023-09-02T17:15:18.261Z,17.20
2023-09-02T17:17:51.846Z,18.30
2023-09-02T17:20:27.904Z,27.63
2023-09-02T17:22:56.679Z,10.90
2023-09-02T17:25:25.072Z,18.33
2023-09-02T17:27:57.142Z,12.87
2023-09-02T17:30:26.712Z,15.17
2023-09-02T17:32:55.439Z,28.60
2023-09-02T17:35:23.906Z,14.83
2023-09-02T17:37:52.353Z,11.70
2023-09-02T17:40:20.841Z,7.33
2023-09-02T17:42:49.331Z,4.57
2023-09-02T17:45:20.870Z,4.17
2023-09-02T17:47:49.854Z,4.30
2023-09-02T17:50:18.437Z,3.87
2023-09-02T17:52:46.833Z,4.13
2023-09-02T17:55:15.672Z,3.90
2023-09-02T17:57:44.250Z,3.50
2023-09-02T18:00:14.483Z,4.17
2023-09-02T18:02:44.936Z,4.20
2023-09-02T18:05:13.547Z,4.67
2023-09-02T18:07:41.972Z,4.03
2023-09-02T18:10:11.690Z,4.23
2023-09-02T18:12:40.228Z,5.07
2023-09-02T18:15:10.378Z,4.57
2023-09-02T18:17:39.037Z,4.53
2023-09-02T18:20:10.707Z,4.80
2023-09-02T18:22:39.116Z,5.70
2023-09-02T18:25:09.146Z,6.37
2023-09-02T18:27:37.599Z,7.70
2023-09-02T18:30:06.905Z,6.53
2023-09-02T18:32:35.340Z,7.70
2023-09-02T18:35:03.775Z,7.20
2023-09-02T18:37:33.522Z,10.50
2023-09-02T18:40:01.992Z,10.07
2023-09-02T18:42:30.566Z,10.40
2023-09-02T18:44:58.987Z,8.50
2023-09-02T18:47:27.508Z,7.00
2023-09-02T18:49:55.872Z,6.80
2023-09-02T18:52:24.378Z,6.53
2023-09-02T18:54:54.176Z,7.50
2023-09-02T18:57:22.556Z,8.77
2023-09-02T18:59:51.075Z,8.00
2023-09-02T19:02:19.534Z,7.80
2023-09-02T19:04:48.036Z,7.50
2023-09-02T19:07:16.550Z,6.80
2023-09-02T19:09:45.014Z,6.70
2023-09-02T19:12:15.081Z,6.63
2023-09-02T19:14:43.503Z,7.40
2023-09-02T19:17:11.938Z,6.27
2023-09-02T19:19:40.465Z,6.40
2023-09-02T19:22:08.872Z,7.17
2023-09-02T19:24:37.373Z,6.63
2023-09-02T19:27:06.394Z,8.93
2023-09-02T19:29:36.130Z,9.07
2023-09-02T19:32:04.726Z,9.53
2023-09-02T19:34:33.157Z,9.77
2023-09-02T19:37:04.862Z,10.87
2023-09-02T19:39:34.615Z,10.00
2023-09-02T19:42:03.048Z,8.60
2023-09-02T19:44:33.514Z,9.90
2023-09-02T19:47:03.308Z,9.90
2023-09-02T19:49:31.768Z,9.70
2023-09-02T19:52:00.097Z,10.77
2023-09-02T19:54:28.492Z,10.10
2023-09-02T19:56:57.225Z,9.50
2023-09-02T19:59:25.723Z,11.40
2023-09-02T20:01:54.236Z,13.43
2023-09-02T20:04:24.145Z,13.27
2023-09-02T20:06:52.634Z,16.07
2023-09-02T20:09:22.145Z,19.13
2023-09-02T20:11:50.587Z,17.17
2023-09-02T20:14:18.934Z,16.43
2023-09-02T20:16:47.308Z,18.47
2023-09-02T20:19:15.739Z,16.10
2023-09-02T20:21:45.616Z,14.90
2023-09-02T20:24:14.080Z,16.70
2023-09-02T20:26:42.611Z,14.60
2023-09-02T20:29:17.914Z,18.30
2023-09-02T20:31:46.290Z,19.90
2023-09-02T20:34:14.736Z,18.70
2023-09-02T20:36:44.532Z,21.43
2023-09-02T20:39:13.453Z,18.10
2023-09-02T20:41:42.216Z,17.87
2023-09-02T20:44:11.038Z,16.43
2023-09-02T20:46:39.839Z,15.63
2023-09-02T20:49:08.982Z,16.77
2023-09-02T20:51:37.493Z,14.03
2023-09-02T20:54:08.168Z,16.90
2023-09-02T20:56:36.628Z,14.87
2023-09-02T20:59:05.184Z,14.47
2023-09-02T21:01:33.589Z,15.57
2023-09-02T21:04:01.949Z,14.83
2023-09-02T21:06:30.336Z,14.37
2023-09-02T21:08:58.798Z,13.77
2023-09-02T21:11:28.649Z,14.83
2023-09-02T21:13:57.054Z,13.83
2023-09-02T21:16:25.526Z,14.40
2023-09-02T21:18:54.050Z,14.00
2023-09-02T21:21:23.358Z,13.70
2023-09-02T21:23:51.910Z,15.30
2023-09-02T21:26:20.926Z,14.27
2023-09-02T21:28:52.212Z,13.13
2023-09-02T21:31:21.272Z,14.00
2023-09-02T21:33:50.950Z,14.63
2023-09-02T21:36:19.912Z,13.90
2023-09-02T21:38:48.974Z,15.47
2023-09-02T21:41:17.393Z,15.73
2023-09-02T21:43:45.797Z,15.30
2023-09-02T21:46:15.742Z,16.00
2023-09-02T21:48:44.166Z,16.37
2023-09-02T21:51:13.239Z,13.70
2023-09-02T21:53:42.319Z,11.90
2023-09-02T21:56:10.900Z,12.57
2023-09-02T21:58:39.468Z,11.00
2023-09-02T22:01:08.985Z,12.20
2023-09-02T22:03:39.210Z,13.80
2023-09-02T22:06:09.017Z,11.60
2023-09-02T22:08:37.638Z,11.57
2023-09-02T22:11:06.043Z,12.90
2023-09-02T22:13:34.514Z,13.00
2023-09-02T22:16:02.996Z,16.13
2023-09-02T22:18:31.370Z,17.60
2023-09-02T22:21:01.302Z,15.97
2023-09-02T22:23:30.062Z,15.73
2023-09-02T22:26:01.427Z,14.33
2023-09-02T22:28:30.024Z,14.27
2023-09-02T22:30:58.777Z,17.33
2023-09-02T22:33:28.240Z,15.13
2023-09-02T22:35:56.993Z,16.63
2023-09-02T22:38:48.076Z,15.80
2023-09-02T22:41:15.725Z,15.30
2023-09-02T22:43:44.098Z,12.70
2023-09-02T22:46:13.627Z,14.20
2023-09-02T22:48:42.286Z,11.80
2023-09-02T22:51:10.697Z,11.57
2023-09-02T22:53:41.263Z,12.20
2023-09-02T22:56:13.360Z,11.70
2023-09-02T22:58:41.870Z,11.63
2023-09-02T23:01:11.925Z,16.47
2023-09-02T23:03:41.021Z,16.93
2023-09-02T23:06:10.847Z,13.70
2023-09-02T23:08:41.187Z,14.00
2023-09-02T23:11:09.562Z,14.80
2023-09-02T23:13:38.627Z,14.63
2023-09-02T23:16:07.467Z,15.93
2023-09-02T23:18:35.896Z,14.33
2023-09-02T23:21:11.829Z,15.20
2023-09-02T23:23:41.684Z,13.87
2023-09-02T23:26:10.417Z,14.23
2023-09-02T23:28:39.967Z,15.43
2023-09-02T23:31:11.158Z,13.60
2023-09-02T23:33:40.604Z,14.43
2023-09-02T23:36:09.304Z,15.10
2023-09-02T23:38:37.697Z,12.93
2023-09-02T23:41:07.532Z,14.57
2023-09-02T23:43:35.907Z,11.47
2023-09-02T23:46:04.268Z,14.17
2023-09-02T23:48:32.748Z,14.33
2023-09-02T23:51:01.235Z,12.73
2023-09-02T23:53:29.600Z,11.20
2023-09-02T23:55:58.396Z,12.30
2023-09-02T23:58:28.221Z,13.03
